Time;durP1;ratioP1;P1;durP2;ratioP2;P2;SDS_P1;SDS_P2;PMS_P1;PMS_P2;Temp;Humidity;BMP_temperature;BMP_pressure;BME280_temperature;BME280_humidity;BME280_pressure;Samples;Min_cycle;Max_cycle;Signal;HPM_P1;HPM_P2
2021/09/22 00:01:19;;;;;;;10.35;8.60;;;8.10;99.90;;;;;;4993187;28;20211;-67
2021/09/22 00:03:45;;;;;;;12.00;9.02;;;8.10;99.90;;;;;;4992216;28;20211;-67
2021/09/22 00:06:12;;;;;;;9.57;8.57;;;8.10;99.90;;;;;;4992810;28;20211;-67
2021/09/22 00:08:39;;;;;;;10.65;9.40;;;8.00;99.90;;;;;;4992483;28;20235;-67
2021/09/22 00:11:05;;;;;;;9.43;8.40;;;8.00;99.90;;;;;;4992965;28;20214;-67
2021/09/22 00:13:32;;;;;;;11.40;9.27;;;8.00;99.90;;;;;;4992032;28;20226;-67
2021/09/22 00:15:59;;;;;;;10.93;8.35;;;8.00;99.90;;;;;;4992458;28;20203;-67
2021/09/22 00:18:27;;;;;;;11.95;9.30;;;8.00;99.90;;;;;;4992489;28;20749;-67
2021/09/22 00:20:54;;;;;;;10.55;9.15;;;8.00;99.90;;;;;;4992728;28;20556;-67
2021/09/22 00:23:20;;;;;;;10.77;9.00;;;8.00;99.90;;;;;;4992384;28;20199;-67
2021/09/22 00:25:47;;;;;;;8.75;7.90;;;8.00;99.90;;;;;;4991903;28;20672;-67
2021/09/22 00:28:14;;;;;;;11.65;9.30;;;7.90;99.90;;;;;;4992462;28;20227;-67
2021/09/22 00:30:41;;;;;;;9.50;8.50;;;7.90;99.90;;;;;;4992221;28;20203;-67
2021/09/22 00:33:08;;;;;;;9.50;8.30;;;7.90;99.90;;;;;;4991678;28;20227;-67
2021/09/22 00:35:36;;;;;;;9.60;8.30;;;8.00;99.90;;;;;;4992239;28;20226;-67
2021/09/22 00:38:03;;;;;;;10.32;8.82;;;7.90;99.90;;;;;;4992045;28;20232;-67
2021/09/22 00:40:30;;;;;;;11.10;9.25;;;7.90;99.90;;;;;;4992418;28;20210;-67
2021/09/22 00:42:57;;;;;;;11.57;9.55;;;7.90;99.90;;;;;;4992269;28;20207;-67
2021/09/22 00:45:23;;;;;;;10.85;9.13;;;7.90;99.90;;;;;;4992067;28;20679;-67
2021/09/22 00:47:50;;;;;;;11.88;8.88;;;7.90;99.90;;;;;;4992538;28;20226;-67
2021/09/22 00:50:17;;;;;;;9.27;8.32;;;7.80;99.90;;;;;;4992063;28;20206;-67
2021/09/22 00:52:45;;;;;;;11.25;9.77;;;7.80;99.90;;;;;;4992288;28;20674;-67
2021/09/22 00:55:15;;;;;;;11.35;8.95;;;7.80;99.90;;;;;;4991571;28;20230;-67
2021/09/22 00:57:46;;;;;;;10.85;9.45;;;7.80;99.90;;;;;;4992182;28;20230;-67
2021/09/22 01:00:14;;;;;;;10.00;8.77;;;7.80;99.90;;;;;;4992156;28;20234;-67
2021/09/22 01:02:41;;;;;;;14.00;9.63;;;7.80;99.90;;;;;;4991981;28;20211;-67
2021/09/22 01:05:08;;;;;;;10.98;8.43;;;7.80;99.90;;;;;;4991622;28;20202;-67
2021/09/22 01:07:35;;;;;;;10.00;8.55;;;7.80;99.90;;;;;;4991797;28;20210;-67
2021/09/22 01:10:04;;;;;;;11.20;9.45;;;7.80;99.90;;;;;;4991986;28;20218;-67
2021/09/22 01:12:31;;;;;;;9.57;8.63;;;7.70;99.90;;;;;;4991651;28;20207;-68
2021/09/22 01:14:57;;;;;;;13.65;9.57;;;7.70;99.90;;;;;;4991721;28;20223;-67
2021/09/22 01:17:25;;;;;;;10.07;8.68;;;7.70;99.90;;;;;;4991341;28;20737;-67
2021/09/22 01:19:52;;;;;;;13.40;8.98;;;7.70;99.90;;;;;;4992046;28;20199;-67
2021/09/22 01:22:20;;;;;;;12.23;9.30;;;7.70;99.90;;;;;;4991687;28;20584;-67
2021/09/22 01:24:47;;;;;;;10.40;9.30;;;7.70;99.90;;;;;;4991161;28;20203;-67
2021/09/22 01:27:13;;;;;;;12.85;9.43;;;7.70;99.90;;;;;;4991817;28;20214;-66
2021/09/22 01:29:42;;;;;;;12.52;10.00;;;7.70;99.90;;;;;;4991513;28;20597;-67
2021/09/22 01:32:11;;;;;;;14.32;10.93;;;7.60;99.90;;;;;;4991636;28;20679;-67
2021/09/22 01:34:38;;;;;;;12.27;8.98;;;7.60;99.90;;;;;;4990646;28;20950;-66
2021/09/22 01:37:05;;;;;;;13.00;9.05;;;7.60;99.90;;;;;;4991623;28;20203;-66
2021/09/22 01:39:38;;;;;;;12.10;10.20;;;7.60;99.90;;;;;;4991160;28;20638;-67
2021/09/22 01:42:05;;;;;;;10.45;9.35;;;7.60;99.90;;;;;;4991547;28;20214;-67
2021/09/22 01:44:33;;;;;;;9.63;8.32;;;7.60;99.90;;;;;;4990170;28;20856;-66
2021/09/22 01:47:00;;;;;;;11.00;9.77;;;7.60;99.90;;;;;;4991443;28;20203;-66
2021/09/22 01:49:27;;;;;;;12.07;9.13;;;7.60;99.90;;;;;;4991163;28;20223;-66
2021/09/22 01:51:58;;;;;;;12.52;10.05;;;7.60;99.90;;;;;;4991339;28;20211;-67
2021/09/22 01:54:24;;;;;;;12.88;9.93;;;7.60;99.90;;;;;;4990531;28;20218;-66
2021/09/22 01:56:53;;;;;;;13.68;10.88;;;7.60;99.90;;;;;;4991230;28;20211;-66
2021/09/22 01:59:20;;;;;;;11.38;10.18;;;7.50;99.90;;;;;;4991448;28;20231;-67
2021/09/22 02:01:46;;;;;;;13.35;9.68;;;7.50;99.90;;;;;;4991716;28;20203;-67
2021/09/22 02:04:13;;;;;;;12.20;10.90;;;7.50;99.90;;;;;;4990604;28;20199;-66
2021/09/22 02:06:40;;;;;;;13.98;11.65;;;7.50;99.90;;;;;;4991140;28;20223;-66
2021/09/22 02:09:07;;;;;;;14.85;10.95;;;7.50;99.90;;;;;;4990913;28;20227;-66
2021/09/22 02:11:34;;;;;;;11.98;10.05;;;7.50;99.90;;;;;;4991175;28;20613;-66
2021/09/22 02:14:02;;;;;;;12.23;9.55;;;7.50;99.90;;;;;;4990463;28;20219;-66
2021/09/22 02:16:28;;;;;;;11.98;10.65;;;7.50;99.90;;;;;;4990935;28;20218;-67
2021/09/22 02:18:55;;;;;;;12.73;11.00;;;7.50;99.90;;;;;;4991092;28;20718;-66
2021/09/22 02:21:22;;;;;;;13.82;11.27;;;7.50;99.90;;;;;;4990988;28;20207;-67
2021/09/22 02:23:49;;;;;;;14.30;11.75;;;7.50;99.90;;;;;;4990517;28;20203;-67
2021/09/22 02:26:15;;;;;;;14.38;11.55;;;7.50;99.90;;;;;;4990834;28;20235;-66
2021/09/22 02:28:42;;;;;;;13.43;11.20;;;7.50;99.90;;;;;;4990899;28;20238;-66
2021/09/22 02:31:10;;;;;;;12.63;10.52;;;7.50;99.90;;;;;;4990880;28;20207;-66
2021/09/22 02:33:37;;;;;;;16.13;11.15;;;7.40;99.90;;;;;;4990675;28;20203;-66
2021/09/22 02:36:04;;;;;;;13.02;10.48;;;7.40;99.90;;;;;;4991002;28;20211;-67
2021/09/22 02:38:31;;;;;;;13.30;10.77;;;7.40;99.90;;;;;;4990629;28;20223;-66
2021/09/22 02:40:57;;;;;;;16.42;11.85;;;7.30;99.90;;;;;;4991120;28;20207;-66
2021/09/22 02:43:24;;;;;;;13.13;10.60;;;7.30;99.90;;;;;;4990391;28;20243;-66
2021/09/22 02:45:51;;;;;;;15.05;11.68;;;7.30;99.90;;;;;;4990762;28;20207;-66
2021/09/22 02:48:19;;;;;;;12.20;10.50;;;7.30;99.90;;;;;;4990719;28;20227;-66
2021/09/22 02:50:46;;;;;;;14.35;11.43;;;7.30;99.90;;;;;;4990923;28;20567;-66
2021/09/22 02:53:13;;;;;;;14.73;11.50;;;7.30;99.90;;;;;;4990553;28;20203;-66
2021/09/22 02:55:42;;;;;;;15.20;10.70;;;7.30;99.90;;;;;;4992308;28;20227;-66
2021/09/22 02:58:08;;;;;;;15.70;11.00;;;7.30;99.90;;;;;;4994630;28;20227;-66
2021/09/22 03:00:35;;;;;;;15.52;11.20;;;7.30;99.90;;;;;;4994364;28;20210;-66
2021/09/22 03:03:02;;;;;;;13.18;10.77;;;7.30;99.90;;;;;;4994558;28;20551;-66
2021/09/22 03:05:31;;;;;;;14.88;11.60;;;7.20;99.90;;;;;;4993448;28;20213;-66
2021/09/22 03:07:57;;;;;;;14.07;11.23;;;7.20;99.90;;;;;;4994450;28;20234;-66
2021/09/22 03:10:25;;;;;;;15.65;11.60;;;7.20;99.90;;;;;;4994068;28;20238;-66
2021/09/22 03:12:53;;;;;;;14.85;11.05;;;7.30;99.90;;;;;;4994119;28;20211;-66
2021/09/22 03:15:19;;;;;;;14.27;11.63;;;7.20;99.90;;;;;;4993641;28;20223;-66
2021/09/22 03:17:46;;;;;;;16.55;13.70;;;7.20;99.90;;;;;;4993913;28;20219;-66
2021/09/22 03:20:13;;;;;;;19.92;12.65;;;7.20;99.90;;;;;;4994256;28;20214;-66
2021/09/22 03:22:41;;;;;;;14.70;12.13;;;7.20;99.90;;;;;;4993638;28;20601;-66
2021/09/22 03:25:10;;;;;;;17.75;11.93;;;7.20;99.90;;;;;;4993641;28;20690;-67
2021/09/22 03:27:37;;;;;;;13.13;10.73;;;7.20;99.90;;;;;;4993483;28;20743;-67
2021/09/22 03:30:05;;;;;;;13.80;11.38;;;7.10;99.90;;;;;;4994077;28;20210;-67
2021/09/22 03:32:32;;;;;;;15.38;11.52;;;7.10;99.90;;;;;;4993604;28;20703;-67
2021/09/22 03:34:59;;;;;;;13.85;11.05;;;7.10;99.90;;;;;;4994861;28;20366;-66
2021/09/22 03:37:26;;;;;;;14.20;11.20;;;7.10;99.90;;;;;;5007384;28;20195;-67
2021/09/22 03:39:54;;;;;;;14.95;12.23;;;7.10;99.90;;;;;;5002600;28;20716;-66
2021/09/22 03:42:21;;;;;;;12.52;10.90;;;7.10;99.90;;;;;;4997325;28;20210;-67
2021/09/22 03:44:48;;;;;;;15.45;10.80;;;7.10;99.90;;;;;;4997068;28;20195;-67
2021/09/22 03:47:14;;;;;;;12.65;10.43;;;7.10;99.90;;;;;;5002844;28;20199;-67
2021/09/22 03:49:41;;;;;;;12.25;9.93;;;7.10;99.90;;;;;;5003010;28;20230;-67
2021/09/22 03:52:08;;;;;;;12.82;10.95;;;7.00;99.90;;;;;;5000629;28;20244;-67
2021/09/22 03:54:35;;;;;;;16.08;11.10;;;7.10;99.90;;;;;;4997919;28;20215;-67
2021/09/22 03:57:03;;;;;;;14.73;11.00;;;7.10;99.90;;;;;;4999384;28;20586;-66
2021/09/22 03:59:29;;;;;;;12.00;9.93;;;7.00;99.90;;;;;;4998526;28;20214;-66
2021/09/22 04:01:56;;;;;;;13.20;11.20;;;7.00;99.90;;;;;;4999983;28;20198;-66
2021/09/22 04:04:23;;;;;;;16.05;11.32;;;7.00;99.90;;;;;;5009686;28;20581;-66
2021/09/22 04:06:50;;;;;;;15.07;11.55;;;7.00;99.90;;;;;;5007953;28;20207;-66
2021/09/22 04:09:17;;;;;;;13.90;11.40;;;7.00;99.90;;;;;;4998356;28;20805;-66
2021/09/22 04:11:44;;;;;;;12.80;10.02;;;7.00;99.90;;;;;;4992859;28;20243;-66
2021/09/22 04:14:12;;;;;;;14.68;11.50;;;6.90;99.90;;;;;;4991704;28;20640;-66
2021/09/22 04:16:39;;;;;;;15.00;11.60;;;7.00;99.90;;;;;;5012007;28;20214;-66
2021/09/22 04:19:05;;;;;;;14.65;11.43;;;7.00;99.90;;;;;;5012493;28;20219;-66
2021/09/22 04:21:32;;;;;;;14.75;11.60;;;7.00;99.90;;;;;;5011659;28;20203;-66
2021/09/22 04:23:59;;;;;;;15.32;11.65;;;6.90;99.90;;;;;;5011434;28;20253;-66
2021/09/22 04:26:26;;;;;;;14.05;11.20;;;6.90;99.90;;;;;;5006230;28;20574;-66
2021/09/22 04:28:52;;;;;;;14.98;11.30;;;6.90;99.90;;;;;;4992594;28;20718;-66
2021/09/22 04:31:21;;;;;;;13.48;10.32;;;6.90;99.90;;;;;;4992028;28;20203;-66
2021/09/22 04:33:48;;;;;;;15.35;11.30;;;6.90;99.90;;;;;;4991821;28;20214;-66
2021/09/22 04:36:14;;;;;;;15.00;10.93;;;6.90;99.90;;;;;;4991786;28;20330;-66
2021/09/22 04:38:42;;;;;;;14.65;11.10;;;6.90;99.90;;;;;;4991818;28;20223;-66
2021/09/22 04:41:09;;;;;;;12.55;10.15;;;6.80;99.90;;;;;;4992288;28;20199;-66
2021/09/22 04:43:35;;;;;;;13.52;10.82;;;6.80;99.90;;;;;;4991451;28;20222;-66
2021/09/22 04:46:02;;;;;;;14.50;11.55;;;6.80;99.90;;;;;;4992046;28;20201;-66
2021/09/22 04:48:31;;;;;;;17.95;11.10;;;6.90;99.90;;;;;;4991574;28;20223;-66
2021/09/22 04:50:58;;;;;;;14.23;12.10;;;6.80;99.90;;;;;;4992198;28;20215;-66
2021/09/22 04:53:25;;;;;;;16.48;12.25;;;6.80;99.90;;;;;;4991868;28;20202;-66
2021/09/22 04:55:52;;;;;;;13.48;10.48;;;6.80;99.90;;;;;;4991089;28;20726;-66
2021/09/22 04:58:19;;;;;;;16.85;11.85;;;6.80;99.90;;;;;;4992130;28;20230;-66
2021/09/22 05:00:45;;;;;;;13.60;10.80;;;6.80;99.90;;;;;;4996567;28;20261;-66
2021/09/22 05:03:12;;;;;;;16.65;11.73;;;6.70;99.90;;;;;;5001488;28;20203;-66
2021/09/22 05:05:40;;;;;;;13.93;11.02;;;6.70;99.90;;;;;;5052311;23;20570;-73
2021/09/22 05:08:07;;;;;;;14.18;11.27;;;6.70;99.90;;;;;;4979030;28;20215;-73
2021/09/22 05:10:33;;;;;;;14.20;11.07;;;6.70;99.90;;;;;;4971858;28;20203;-73
2021/09/22 05:13:00;;;;;;;17.10;11.02;;;6.70;99.90;;;;;;4971901;28;20204;-73
2021/09/22 05:15:27;;;;;;;15.52;12.60;;;6.70;99.90;;;;;;4971684;28;20646;-73
2021/09/22 05:17:54;;;;;;;15.55;11.75;;;6.70;99.90;;;;;;4971734;28;20711;-73
2021/09/22 05:20:21;;;;;;;14.75;11.98;;;6.70;99.90;;;;;;4972124;28;20224;-73
2021/09/22 05:22:49;;;;;;;16.77;12.00;;;6.70;99.90;;;;;;4971591;28;20200;-73
2021/09/22 05:25:16;;;;;;;16.13;12.15;;;6.70;99.90;;;;;;4971713;28;20200;-73
2021/09/22 05:27:44;;;;;;;15.43;11.65;;;6.70;99.90;;;;;;4971612;28;20294;-73
2021/09/22 05:30:11;;;;;;;15.85;12.68;;;6.70;99.90;;;;;;4971741;28;20731;-72
2021/09/22 05:32:38;;;;;;;15.05;11.70;;;6.70;99.90;;;;;;4971624;28;20212;-72
2021/09/22 05:35:06;;;;;;;15.02;11.38;;;6.70;99.90;;;;;;4971334;28;20235;-72
2021/09/22 05:37:32;;;;;;;18.63;13.10;;;6.70;99.90;;;;;;4971501;28;20210;-72
2021/09/22 05:40:00;;;;;;;12.52;11.23;;;6.70;99.90;;;;;;4971168;28;20226;-72
2021/09/22 05:42:27;;;;;;;14.40;11.20;;;6.70;99.90;;;;;;4965217;28;20208;-72
2021/09/22 05:44:55;;;;;;;20.90;12.57;;;6.70;99.90;;;;;;4964458;28;20206;-72
2021/09/22 05:47:21;;;;;;;16.30;12.13;;;6.80;99.90;;;;;;4968302;28;20208;-72
2021/09/22 05:49:48;;;;;;;16.48;12.52;;;6.80;99.90;;;;;;4971266;28;20227;-72
2021/09/22 05:52:15;;;;;;;14.02;11.52;;;6.90;99.90;;;;;;4971427;28;20199;-72
2021/09/22 05:54:41;;;;;;;15.27;12.10;;;6.90;99.90;;;;;;4970899;28;20215;-72
2021/09/22 05:57:09;;;;;;;15.02;11.45;;;6.90;99.90;;;;;;4971541;28;20208;-72
2021/09/22 05:59:36;;;;;;;16.02;11.90;;;7.00;99.90;;;;;;4970702;28;20218;-72
2021/09/22 06:02:03;;;;;;;14.80;11.60;;;7.10;99.90;;;;;;4960035;28;20574;-73
2021/09/22 06:04:30;;;;;;;14.85;10.80;;;7.10;99.90;;;;;;4970163;28;20199;-73
2021/09/22 06:06:57;;;;;;;15.70;12.25;;;7.20;99.90;;;;;;4982291;28;20208;-72
2021/09/22 06:09:24;;;;;;;14.88;11.98;;;7.30;99.90;;;;;;4967145;28;20235;-72
2021/09/22 06:11:51;;;;;;;16.63;11.02;;;7.30;99.90;;;;;;4970143;28;20227;-72
2021/09/22 06:14:20;;;;;;;16.50;12.32;;;7.40;99.90;;;;;;4969623;28;20259;-72
2021/09/22 06:16:47;;;;;;;21.85;12.48;;;7.50;99.90;;;;;;4969899;28;20239;-73
2021/09/22 06:19:15;;;;;;;14.13;11.88;;;7.60;99.90;;;;;;4970591;28;20326;-73
2021/09/22 06:21:42;;;;;;;16.83;12.10;;;7.60;99.90;;;;;;4970035;28;20314;-74
2021/09/22 06:24:09;;;;;;;19.38;12.48;;;7.70;99.90;;;;;;4969490;28;20211;-73
2021/09/22 06:26:37;;;;;;;15.13;11.77;;;7.80;99.90;;;;;;4969898;28;20258;-73
2021/09/22 06:29:04;;;;;;;15.20;12.10;;;7.90;99.90;;;;;;4970251;28;20236;-74
2021/09/22 06:31:36;;;;;;;17.67;12.90;;;7.90;99.90;;;;;;4973526;28;20262;-73
2021/09/22 06:34:04;;;;;;;16.85;13.60;;;8.00;99.90;;;;;;4973235;28;20266;-73
2021/09/22 06:36:31;;;;;;;16.38;12.85;;;8.20;99.90;;;;;;4973322;28;20263;-73
2021/09/22 06:38:58;;;;;;;15.82;12.75;;;8.20;99.90;;;;;;4973815;28;20592;-73
2021/09/22 06:41:29;;;;;;;15.10;13.32;;;8.30;99.90;;;;;;4973943;28;20683;-73
2021/09/22 06:43:56;;;;;;;15.75;12.85;;;8.40;99.90;;;;;;4973196;28;20204;-74
2021/09/22 06:46:24;;;;;;;15.57;12.63;;;8.50;99.90;;;;;;4973409;28;20212;-74
2021/09/22 06:48:53;;;;;;;15.23;12.77;;;8.60;99.90;;;;;;4973342;28;20318;-74
2021/09/22 06:51:20;;;;;;;17.35;14.02;;;8.70;99.90;;;;;;4973314;28;20203;-73
2021/09/22 06:53:51;;;;;;;17.85;12.40;;;8.90;99.90;;;;;;4972852;28;20207;-73
2021/09/22 06:56:18;;;;;;;13.77;12.10;;;9.00;99.90;;;;;;4973026;28;20248;-73
2021/09/22 06:58:46;;;;;;;17.05;14.02;;;9.10;99.90;;;;;;4973187;28;20231;-74
2021/09/22 07:01:13;;;;;;;20.58;14.10;;;9.20;99.90;;;;;;4972965;28;20208;-73
2021/09/22 07:03:41;;;;;;;15.65;13.02;;;9.40;99.90;;;;;;4972640;28;20247;-73
2021/09/22 07:06:12;;;;;;;17.20;13.85;;;9.50;99.90;;;;;;4972373;28;20606;-74
2021/09/22 07:08:40;;;;;;;20.05;15.40;;;9.70;99.90;;;;;;4972661;28;20274;-74
2021/09/22 07:11:08;;;;;;;20.30;15.18;;;9.90;99.90;;;;;;4973304;28;20200;-74
2021/09/22 07:13:37;;;;;;;19.40;14.98;;;10.10;99.90;;;;;;4972752;28;20211;-74
2021/09/22 07:16:05;;;;;;;18.17;15.25;;;10.30;99.90;;;;;;4972851;28;20227;-74
2021/09/22 07:18:33;;;;;;;20.95;16.08;;;10.50;99.90;;;;;;4975377;28;20322;-74
2021/09/22 07:21:01;;;;;;;22.45;16.80;;;10.70;99.90;;;;;;4973193;28;20211;-74
2021/09/22 07:23:30;;;;;;;19.20;14.75;;;10.90;99.90;;;;;;4973170;28;20239;-74
2021/09/22 07:25:58;;;;;;;19.85;15.32;;;11.00;99.90;;;;;;4972131;28;20200;-74
2021/09/22 07:28:25;;;;;;;19.08;14.90;;;11.10;99.90;;;;;;4972998;28;20259;-73
2021/09/22 07:30:53;;;;;;;17.77;14.88;;;11.20;99.90;;;;;;4972534;28;20208;-73
2021/09/22 07:33:20;;;;;;;19.98;15.85;;;11.40;99.90;;;;;;4983239;28;20655;-73
2021/09/22 07:35:48;;;;;;;21.63;16.27;;;11.50;99.90;;;;;;4991422;28;21129;-73
2021/09/22 07:38:16;;;;;;;18.25;13.90;;;11.70;99.90;;;;;;4991715;28;20223;-73
2021/09/22 07:40:46;;;;;;;17.83;15.05;;;11.80;99.90;;;;;;4991456;28;20203;-74
2021/09/22 07:43:14;;;;;;;15.30;13.55;;;11.90;99.90;;;;;;4991110;28;20679;-73
2021/09/22 07:45:42;;;;;;;20.10;14.50;;;12.00;99.90;;;;;;4990987;28;20199;-73
2021/09/22 07:48:09;;;;;;;17.30;13.23;;;12.10;99.90;;;;;;4991771;28;20341;-73
2021/09/22 07:50:37;;;;;;;16.30;13.30;;;12.20;99.90;;;;;;4991607;28;20203;-73
2021/09/22 07:53:05;;;;;;;16.17;14.20;;;12.30;99.90;;;;;;4991551;28;20210;-73
2021/09/22 07:55:33;;;;;;;16.73;14.47;;;12.40;99.90;;;;;;4990501;28;20492;-73
2021/09/22 07:58:02;;;;;;;20.40;14.77;;;12.50;99.90;;;;;;4991886;28;20860;-73
2021/09/22 08:00:30;;;;;;;19.60;13.80;;;12.60;99.90;;;;;;4991222;28;20458;-73
2021/09/22 08:02:58;;;;;;;15.60;13.40;;;12.80;99.90;;;;;;4988525;28;20496;-73
2021/09/22 08:05:26;;;;;;;18.33;13.43;;;12.90;99.90;;;;;;4976718;28;20462;-73
2021/09/22 08:07:54;;;;;;;15.47;13.30;;;13.10;99.90;;;;;;4971756;28;20901;-74
2021/09/22 08:10:21;;;;;;;16.20;12.83;;;13.30;99.90;;;;;;4972197;28;20557;-73
2021/09/22 08:12:50;;;;;;;16.63;12.60;;;13.40;99.90;;;;;;4971419;28;21130;-74
2021/09/22 08:15:19;;;;;;;13.73;11.60;;;13.50;99.90;;;;;;4971237;28;20467;-73
2021/09/22 08:17:47;;;;;;;15.10;11.20;;;13.60;99.90;;;;;;4971248;28;20490;-73
2021/09/22 08:20:16;;;;;;;14.40;12.27;;;13.70;99.90;;;;;;4972224;28;20462;-73
2021/09/22 08:22:43;;;;;;;12.27;11.00;;;13.90;99.90;;;;;;4972672;28;20517;-73
2021/09/22 08:25:10;;;;;;;15.60;11.87;;;14.10;99.90;;;;;;4972684;28;20959;-73
2021/09/22 08:27:38;;;;;;;14.50;11.77;;;14.20;99.90;;;;;;4971976;28;20463;-74
2021/09/22 08:30:07;;;;;;;14.10;11.97;;;14.30;99.90;;;;;;4971587;28;20490;-74
2021/09/22 08:32:36;;;;;;;11.70;10.47;;;14.40;99.90;;;;;;4971506;28;20470;-73
2021/09/22 08:35:04;;;;;;;11.07;9.67;;;14.50;99.90;;;;;;4971138;28;20475;-73
2021/09/22 08:37:32;;;;;;;12.57;11.37;;;14.50;99.90;;;;;;4971322;28;20554;-74
2021/09/22 08:39:59;;;;;;;12.57;10.27;;;14.60;99.90;;;;;;4971709;28;20463;-74
2021/09/22 08:42:26;;;;;;;11.80;10.50;;;14.60;99.90;;;;;;4970911;28;20463;-73
2021/09/22 08:44:54;;;;;;;11.90;10.70;;;14.60;99.90;;;;;;4970775;28;20950;-73
2021/09/22 08:47:22;;;;;;;11.03;9.70;;;14.70;99.90;;;;;;4970698;28;20459;-74
2021/09/22 08:49:51;;;;;;;10.90;9.80;;;14.80;99.90;;;;;;4972006;28;20491;-74
2021/09/22 08:52:17;;;;;;;11.23;10.07;;;14.90;99.90;;;;;;4971660;28;20470;-74
2021/09/22 08:54:44;;;;;;;11.07;9.97;;;15.00;99.90;;;;;;4971438;28;20904;-74
2021/09/22 08:57:11;;;;;;;15.13;10.27;;;15.10;99.90;;;;;;4971575;28;20493;-74
2021/09/22 08:59:38;;;;;;;15.20;10.60;;;15.30;99.90;;;;;;4971229;28;20483;-74
2021/09/22 09:02:08;;;;;;;14.57;11.10;;;15.40;99.90;;;;;;4971355;28;20479;-74
2021/09/22 09:04:35;;;;;;;11.90;10.27;;;15.60;99.90;;;;;;4970976;28;20522;-74
2021/09/22 09:07:04;;;;;;;10.80;9.80;;;15.70;99.90;;;;;;4970933;28;20470;-74
2021/09/22 09:09:33;;;;;;;11.27;10.17;;;15.80;99.90;;;;;;4989866;28;21067;-73
2021/09/22 09:12:00;;;;;;;9.77;8.73;;;16.00;99.90;;;;;;4969287;28;20959;-73
2021/09/22 09:14:29;;;;;;;8.87;7.97;;;16.10;99.90;;;;;;4967337;28;20462;-74
2021/09/22 09:16:59;;;;;;;11.10;8.90;;;16.30;99.90;;;;;;4951854;28;20553;-74
2021/09/22 09:19:26;;;;;;;9.20;7.87;;;16.50;99.90;;;;;;4955961;28;20491;-74
2021/09/22 09:21:58;;;;;;;9.30;7.70;;;16.60;99.90;;;;;;4957890;28;20472;-74
2021/09/22 09:24:36;;;;;;;8.27;7.47;;;16.60;99.90;;;;;;4969823;28;20467;-74
2021/09/22 09:27:04;;;;;;;9.90;7.53;;;16.70;99.90;;;;;;4971232;28;20463;-74
2021/09/22 09:29:31;;;;;;;8.13;7.30;;;16.70;99.90;;;;;;4970954;28;20490;-74
2021/09/22 09:32:14;;;;;;;7.90;7.07;;;16.70;99.90;;;;;;4971676;28;20498;-74
2021/09/22 09:34:58;;;;;;;7.47;6.70;;;16.70;99.90;;;;;;4970146;28;20459;-74
2021/09/22 09:37:31;;;;;;;8.03;7.23;;;16.80;99.90;;;;;;4971064;28;20489;-74
2021/09/22 09:40:19;;;;;;;7.23;6.63;;;16.90;99.90;;;;;;4963554;28;21070;-74
2021/09/22 09:42:47;;;;;;;8.90;7.00;;;17.10;99.90;;;;;;4952004;28;20478;-74
2021/09/22 09:45:17;;;;;;;7.37;6.77;;;17.20;99.90;;;;;;4969169;28;21051;-74
2021/09/22 09:47:57;;;;;;;7.10;6.43;;;17.10;99.90;;;;;;4970520;28;20483;-74
2021/09/22 09:50:24;;;;;;;6.70;6.00;;;16.90;99.90;;;;;;4970548;28;20458;-74
2021/09/22 09:52:52;;;;;;;6.73;6.13;;;16.80;99.90;;;;;;4968982;28;20467;-74
2021/09/22 09:55:23;;;;;;;5.93;5.33;;;16.90;99.90;;;;;;4970321;28;20471;-74
2021/09/22 09:57:50;;;;;;;7.30;6.00;;;17.10;99.90;;;;;;4969742;28;20914;-74
2021/09/22 10:00:21;;;;;;;7.10;5.80;;;17.30;99.90;;;;;;4970735;28;20463;-74
2021/09/22 10:02:48;;;;;;;6.80;6.20;;;17.50;99.90;;;;;;4969766;28;20462;-74
2021/09/22 10:05:15;;;;;;;6.37;5.57;;;17.70;99.90;;;;;;4969248;28;20474;-74
2021/09/22 10:07:42;;;;;;;6.20;5.17;;;17.80;99.90;;;;;;4969887;28;20471;-74
2021/09/22 10:10:09;;;;;;;5.30;4.80;;;17.90;99.90;;;;;;4970110;28;20467;-73
2021/09/22 10:12:38;;;;;;;4.90;4.50;;;18.00;99.90;;;;;;4969834;28;20459;-74
2021/09/22 10:15:07;;;;;;;6.20;5.60;;;18.20;99.90;;;;;;4969668;28;20489;-74
2021/09/22 10:17:37;;;;;;;6.43;4.83;;;18.20;99.90;;;;;;4970025;28;20491;-74
2021/09/22 10:20:05;;;;;;;5.90;5.30;;;18.20;99.90;;;;;;4970559;28;20845;-74
2021/09/22 10:22:32;;;;;;;6.87;5.23;;;18.30;99.90;;;;;;4970240;28;20542;-74
2021/09/22 10:24:59;;;;;;;5.30;4.80;;;18.30;99.90;;;;;;4970460;28;20549;-74
2021/09/22 10:27:26;;;;;;;6.53;5.47;;;18.50;99.90;;;;;;4970011;28;20562;-74
2021/09/22 10:29:59;;;;;;;5.70;5.20;;;18.50;99.90;;;;;;4970768;28;20483;-74
2021/09/22 10:32:42;;;;;;;6.33;5.40;;;18.70;99.90;;;;;;4970465;28;20525;-74
2021/09/22 10:35:35;;;;;;;5.03;4.53;;;18.90;99.90;;;;;;4970302;28;20458;-74
2021/09/22 10:38:22;;;;;;;4.90;4.50;;;19.10;99.90;;;;;;4947477;28;20527;-74
2021/09/22 10:40:50;;;;;;;5.20;4.73;;;19.40;99.90;;;;;;4949366;29;20471;-74
2021/09/22 10:43:21;;;;;;;5.10;4.20;;;19.60;99.90;;;;;;4950100;28;20494;-74
2021/09/22 10:46:10;;;;;;;6.53;4.90;;;19.70;99.90;;;;;;4949965;29;20478;-74
2021/09/22 10:48:38;;;;;;;5.50;4.57;;;19.70;99.90;;;;;;4950882;28;20490;-74
2021/09/22 10:51:09;;;;;;;4.93;3.93;;;19.90;99.90;;;;;;4950936;29;20470;-74
2021/09/22 10:53:42;;;;;;;6.13;4.17;;;20.00;99.90;;;;;;4950810;28;20463;-74
2021/09/22 10:56:11;;;;;;;5.10;4.60;;;20.10;99.90;;;;;;4950266;28;20519;-74
2021/09/22 10:58:47;;;;;;;5.27;4.73;;;20.40;99.90;;;;;;4950992;28;20487;-74
2021/09/22 11:01:50;;;;;;;5.03;4.37;;;20.40;99.90;;;;;;4955091;28;20964;-74
2021/09/22 11:04:18;;;;;;;6.87;4.90;;;20.60;99.90;;;;;;4970031;28;20524;-74
2021/09/22 11:07:00;;;;;;;4.47;4.07;;;20.70;99.90;;;;;;4969538;28;20474;-74
2021/09/22 11:09:36;;;;;;;5.20;4.70;;;20.90;99.90;;;;;;4969667;28;21006;-74
2021/09/22 11:12:10;;;;;;;8.37;4.83;;;21.10;99.90;;;;;;4970282;28;20467;-74
2021/09/22 11:14:38;;;;;;;6.10;4.80;;;21.20;99.90;;;;;;4969159;28;20467;-74
2021/09/22 11:17:08;;;;;;;5.87;5.07;;;21.30;99.90;;;;;;4972839;28;20498;-74
2021/09/22 11:19:36;;;;;;;4.67;4.27;;;21.30;99.90;;;;;;4973232;28;20487;-74
2021/09/22 11:22:09;;;;;;;5.93;5.17;;;21.40;99.90;;;;;;4973956;28;20463;-74
2021/09/22 11:24:36;;;;;;;6.10;5.50;;;21.50;99.90;;;;;;4972930;28;20950;-74
2021/09/22 11:27:05;;;;;;;5.53;4.87;;;21.50;99.90;;;;;;4973107;28;20570;-74
2021/09/22 11:29:35;;;;;;;5.40;4.63;;;21.50;99.90;;;;;;4973363;28;20494;-74
2021/09/22 11:32:03;;;;;;;4.90;4.50;;;21.60;99.90;;;;;;4973157;28;20522;-74
2021/09/22 11:34:35;;;;;;;5.00;4.60;;;21.60;99.90;;;;;;4972885;28;20476;-74
2021/09/22 11:37:07;;;;;;;4.03;3.73;;;21.80;99.90;;;;;;4973339;28;20491;-74
2021/09/22 11:39:35;;;;;;;3.33;3.03;;;22.10;99.90;;;;;;4972778;28;20994;-74
2021/09/22 11:42:02;;;;;;;4.50;3.67;;;22.20;99.90;;;;;;4973168;28;20459;-74
2021/09/22 11:44:30;;;;;;;3.50;3.20;;;22.30;99.90;;;;;;4972351;28;20459;-74
2021/09/22 11:47:00;;;;;;;4.27;3.13;;;22.40;99.90;;;;;;4967247;28;20527;-74
2021/09/22 11:49:37;;;;;;;3.20;2.90;;;22.50;99.90;;;;;;4953187;28;20487;-74
2021/09/22 11:52:10;;;;;;;3.23;2.97;;;22.60;99.90;;;;;;4954189;28;20552;-74
2021/09/22 11:54:41;;;;;;;4.07;3.77;;;22.90;99.90;;;;;;4953097;28;20471;-74
2021/09/22 11:57:10;;;;;;;7.93;4.80;;;23.00;99.90;;;;;;4954251;28;20491;-74
2021/09/22 11:59:37;;;;;;;4.30;4.00;;;23.00;99.90;;;;;;4953443;28;20489;-74
2021/09/22 12:02:04;;;;;;;5.00;4.50;;;22.90;99.90;;;;;;4953602;28;20464;-74
2021/09/22 12:04:35;;;;;;;4.27;3.87;;;22.70;99.90;;;;;;4963777;28;20455;-74
2021/09/22 12:07:04;;;;;;;5.00;4.50;;;22.70;99.90;;;;;;4972041;28;20463;-74
2021/09/22 12:09:39;;;;;;;3.83;3.53;;;22.90;99.90;;;;;;4972727;28;20514;-74
2021/09/22 12:12:15;;;;;;;3.10;2.80;;;22.60;99.90;;;;;;4972938;28;20464;-74
2021/09/22 12:14:51;;;;;;;3.00;2.70;;;22.20;99.90;;;;;;4972370;28;20843;-74
2021/09/22 12:17:19;;;;;;;3.77;3.47;;;21.80;99.90;;;;;;4972860;28;20486;-74
2021/09/22 12:19:49;;;;;;;3.90;3.07;;;21.70;99.90;;;;;;4972522;28;20493;-74
2021/09/22 12:22:22;;;;;;;4.00;3.53;;;21.70;99.90;;;;;;4973189;28;20463;-75
2021/09/22 12:24:49;;;;;;;3.60;3.30;;;21.70;99.90;;;;;;4971926;28;20475;-73
2021/09/22 12:27:18;;;;;;;3.60;3.30;;;21.60;99.90;;;;;;4972139;28;20466;-73
2021/09/22 12:29:53;;;;;;;3.33;3.03;;;21.30;99.90;;;;;;4972372;28;20490;-73
2021/09/22 12:32:20;;;;;;;3.47;3.17;;;21.20;99.90;;;;;;4972556;28;20595;-73
2021/09/22 12:34:48;;;;;;;4.50;2.97;;;21.20;99.90;;;;;;4971801;28;20838;-73
2021/09/22 12:37:16;;;;;;;4.47;2.87;;;21.30;99.90;;;;;;4972412;28;20490;-73
2021/09/22 12:39:59;;;;;;;4.20;3.00;;;21.30;99.90;;;;;;4971946;28;20574;-73
2021/09/22 12:42:38;;;;;;;4.87;3.07;;;21.20;99.90;;;;;;4972592;28;20471;-73
2021/09/22 12:45:08;;;;;;;3.90;2.70;;;21.30;99.90;;;;;;4971902;28;20839;-73
2021/09/22 12:47:36;;;;;;;2.80;2.60;;;21.30;99.90;;;;;;4972097;28;20466;-73